Time,TemperatureF,DewpointF,PressureIn,WindDirection,WindDirectionDegrees,WindSpeedMPH,WindSpeedGustMPH,Humidity,HourlyPrecipIn,Conditions,Clouds,dailyrainin,SoftwareType,DateUTC
2013-02-19 00:02:00,33.0,31.0,29.59,WNW,294,18.0,29.0,94,0.12,,,0.31,,2013-02-19 05:02:00,
2013-02-19 00:22:00,32.0,31.0,29.60,WNW,291,16.0,24.0,95,0.09,,,0.31,,2013-02-19 05:22:00,
2013-02-19 00:32:00,32.0,31.0,29.61,WNW,288,17.0,23.0,96,0.03,,,0.31,,2013-02-19 05:32:00,
2013-02-19 01:02:00,31.0,29.0,29.65,West,277,25.0,34.0,94,0.00,,,0.31,,2013-02-19 06:02:00,
2013-02-19 01:11:00,31.0,29.0,29.65,West,277,25.0,34.0,94,0.00,,,0.31,,2013-02-19 06:11:00,
2013-02-19 01:22:00,31.0,29.0,29.66,WNW,292,19.0,28.0,93,0.01,,,0.32,,2013-02-19 06:22:00,
2013-02-19 01:32:00,30.0,28.0,29.67,WNW,288,21.0,29.0,94,0.01,,,0.32,,2013-02-19 06:32:00,
2013-02-19 01:42:00,30.0,28.0,29.67,WNW,288,21.0,29.0,94,0.01,,,0.32,,2013-02-19 06:42:00,
2013-02-19 01:52:00,30.0,28.0,29.68,West,281,19.0,28.0,94,0.01,,,0.32,,2013-02-19 06:52:00,
2013-02-19 02:01:00,29.0,27.0,29.69,West,270,21.0,29.0,93,0.00,,,0.32,,2013-02-19 07:01:00,
2013-02-19 02:11:00,29.0,27.0,29.69,West,270,21.0,29.0,93,0.00,,,0.32,,2013-02-19 07:11:00,
2013-02-19 02:22:00,28.0,26.0,29.71,NW,313,19.0,32.0,92,0.00,,,0.32,,2013-02-19 07:22:00,
2013-02-19 02:32:00,27.0,25.0,29.71,WNW,286,19.0,30.0,91,0.00,,,0.32,,2013-02-19 07:32:00,
2013-02-19 02:42:00,27.0,25.0,29.71,WNW,286,19.0,30.0,91,0.00,,,0.32,,2013-02-19 07:42:00,
2013-02-19 02:52:00,27.0,25.0,29.73,WSW,258,20.0,30.0,91,0.00,,,0.32,,2013-02-19 07:52:00,
2013-02-19 03:02:00,26.0,23.0,29.74,West,275,20.0,32.0,89,0.00,,,0.32,,2013-02-19 08:02:00,
2013-02-19 03:11:00,26.0,23.0,29.74,West,275,20.0,32.0,89,0.00,,,0.32,,2013-02-19 08:11:00,
2013-02-19 03:21:00,25.0,22.0,29.75,West,268,22.0,31.0,89,0.00,,,0.32,,2013-02-19 08:21:00,
2013-02-19 03:31:00,24.0,21.0,29.75,West,277,22.0,33.0,88,0.00,,,0.32,,2013-02-19 08:31:00,
2013-02-19 03:42:00,24.0,21.0,29.75,West,277,22.0,33.0,88,0.00,,,0.32,,2013-02-19 08:42:00,
2013-02-19 03:52:00,24.0,21.0,29.75,NW,307,24.0,34.0,87,0.00,,,0.32,,2013-02-19 08:52:00,
2013-02-19 04:01:00,24.0,21.0,29.75,West,280,20.0,33.0,87,0.00,,,0.32,,2013-02-19 09:01:00,
2013-02-19 04:11:00,24.0,21.0,29.75,West,280,20.0,33.0,87,0.00,,,0.32,,2013-02-19 09:11:00,
2013-02-19 04:22:00,24.0,21.0,29.75,WNW,294,21.0,31.0,87,0.00,,,0.32,,2013-02-19 09:22:00,
2013-02-19 04:32:00,24.0,21.0,29.76,West,271,17.0,26.0,88,0.00,,,0.32,,2013-02-19 09:32:00,
2013-02-19 04:42:00,24.0,21.0,29.76,West,271,17.0,26.0,88,0.00,,,0.32,,2013-02-19 09:42:00,
2013-02-19 04:53:00,24.0,21.0,29.77,West,269,16.0,24.0,88,0.00,,,0.32,,2013-02-19 09:53:00,
2013-02-19 05:01:00,23.0,20.0,29.78,WNW,286,19.0,27.0,87,0.00,,,0.32,,2013-02-19 10:01:00,
2013-02-19 05:11:00,23.0,20.0,29.78,WNW,286,19.0,27.0,87,0.00,,,0.32,,2013-02-19 10:11:00,
2013-02-19 05:21:00,23.0,20.0,29.78,WNW,286,17.0,25.0,88,0.00,,,0.32,,2013-02-19 10:21:00,
2013-02-19 05:31:00,23.0,20.0,29.79,West,275,13.0,24.0,89,0.00,,,0.32,,2013-02-19 10:31:00,
2013-02-19 05:42:00,23.0,20.0,29.79,West,275,13.0,24.0,89,0.00,,,0.32,,2013-02-19 10:42:00,
2013-02-19 05:52:00,23.0,19.0,29.79,WNW,287,19.0,29.0,85,0.00,,,0.32,,2013-02-19 10:52:00,
2013-02-19 06:01:00,22.0,19.0,29.80,West,277,19.0,29.0,88,0.00,,,0.32,,2013-02-19 11:01:00,
2013-02-19 06:11:00,22.0,19.0,29.80,West,277,19.0,29.0,88,0.00,,,0.32,,2013-02-19 11:11:00,
2013-02-19 06:22:00,21.0,17.0,29.80,WNW,292,23.0,32.0,85,0.00,,,0.32,,2013-02-19 11:22:00,
2013-02-19 06:32:00,21.0,17.0,29.81,West,266,20.0,29.0,85,0.00,,,0.32,,2013-02-19 11:32:00,
2013-02-19 06:42:00,21.0,17.0,29.81,West,266,20.0,29.0,85,0.00,,,0.32,,2013-02-19 11:42:00,
2013-02-19 06:52:00,21.0,17.0,29.82,WSW,253,16.0,28.0,84,0.00,,,0.32,,2013-02-19 11:52:00,
2013-02-19 07:01:00,21.0,17.0,29.81,West,267,20.0,28.0,84,0.00,,,0.32,,2013-02-19 12:01:00,
2013-02-19 07:12:00,21.0,17.0,29.81,West,267,20.0,28.0,84,0.00,,,0.32,,2013-02-19 12:12:00,
2013-02-19 07:22:00,21.0,17.0,29.82,WNW,286,18.0,26.0,86,0.00,,,0.32,,2013-02-19 12:22:00,
2013-02-19 07:32:00,21.0,17.0,29.83,West,271,20.0,29.0,86,0.00,,,0.32,,2013-02-19 12:32:00,
2013-02-19 07:42:00,21.0,17.0,29.83,West,271,20.0,29.0,86,0.00,,,0.32,,2013-02-19 12:42:00,
2013-02-19 07:52:00,20.0,16.0,29.84,WNW,298,21.0,28.0,85,0.00,,,0.32,,2013-02-19 12:52:00,
2013-02-19 08:02:00,20.0,16.0,29.84,WNW,298,21.0,28.0,85,0.00,,,0.32,,2013-02-19 13:02:00,
2013-02-19 08:11:00,20.0,16.0,29.84,WNW,298,21.0,28.0,85,0.00,,,0.32,,2013-02-19 13:11:00,
2013-02-19 08:22:00,19.0,15.0,29.85,WSW,256,22.0,32.0,84,0.00,,,0.32,,2013-02-19 13:22:00,
2013-02-19 08:32:00,19.0,15.0,29.86,West,277,20.0,30.0,84,0.00,,,0.32,,2013-02-19 13:32:00,
2013-02-19 08:42:00,19.0,15.0,29.86,West,277,20.0,30.0,84,0.00,,,0.32,,2013-02-19 13:42:00,
2013-02-19 08:52:00,19.0,16.0,29.87,West,275,19.0,27.0,86,0.00,,,0.32,,2013-02-19 13:52:00,
2013-02-19 09:01:00,19.0,15.0,29.88,WSW,256,21.0,27.0,85,0.00,,,0.32,,2013-02-19 14:01:00,
2013-02-19 09:11:00,19.0,15.0,29.88,WSW,256,21.0,27.0,85,0.00,,,0.32,,2013-02-19 14:11:00,
2013-02-19 09:21:00,19.0,15.0,29.88,WSW,256,21.0,27.0,85,0.00,,,0.32,,2013-02-19 14:21:00,
2013-02-19 09:32:00,20.0,17.0,29.88,WNW,297,18.0,25.0,87,0.00,,,0.32,,2013-02-19 14:32:00,
2013-02-19 09:42:00,20.0,17.0,29.88,WNW,297,18.0,25.0,87,0.00,,,0.32,,2013-02-19 14:42:00,
2013-02-19 09:52:00,20.0,16.0,29.88,West,274,20.0,27.0,85,0.00,,,0.32,,2013-02-19 14:52:00,
2013-02-19 10:01:00,20.0,17.0,29.89,West,273,15.0,21.0,88,0.00,,,0.32,,2013-02-19 15:01:00,
2013-02-19 10:11:00,20.0,17.0,29.89,West,273,15.0,21.0,88,0.00,,,0.32,,2013-02-19 15:11:00,
2013-02-19 10:21:00,19.0,16.0,29.90,WNW,284,22.0,27.0,86,0.00,,,0.32,,2013-02-19 15:21:00,
2013-02-19 10:32:00,19.0,16.0,29.91,West,277,15.0,25.0,88,0.00,,,0.32,,2013-02-19 15:32:00,
2013-02-19 10:42:00,19.0,16.0,29.91,West,277,15.0,25.0,88,0.00,,,0.32,,2013-02-19 15:42:00,
2013-02-19 10:52:00,19.0,16.0,29.91,West,277,15.0,25.0,88,0.00,,,0.32,,2013-02-19 15:52:00,
2013-02-19 11:02:00,17.0,14.0,29.93,West,271,21.0,29.0,86,0.00,,,0.32,,2013-02-19 16:02:00,
2013-02-19 11:11:00,17.0,14.0,29.93,West,271,21.0,29.0,86,0.00,,,0.32,,2013-02-19 16:11:00,
2013-02-19 11:21:00,18.0,14.0,29.94,WNW,283,20.0,29.0,84,0.00,,,0.32,,2013-02-19 16:21:00,
2013-02-19 11:32:00,18.0,14.0,29.94,WNW,283,20.0,29.0,84,0.00,,,0.32,,2013-02-19 16:32:00,
2013-02-19 11:41:00,18.0,14.0,29.94,WNW,283,20.0,29.0,84,0.00,,,0.32,,2013-02-19 16:41:00,
2013-02-19 11:51:00,17.0,13.0,29.95,West,270,20.0,28.0,84,0.00,,,0.32,,2013-02-19 16:51:00,
2013-02-19 12:01:00,17.0,13.0,29.95,WNW,300,20.0,29.0,84,0.00,,,0.32,,2013-02-19 17:01:00,
2013-02-19 12:11:00,17.0,13.0,29.95,WNW,300,20.0,29.0,84,0.00,,,0.32,,2013-02-19 17:11:00,
2013-02-19 12:21:00,17.0,13.0,29.96,West,277,22.0,30.0,84,0.00,,,0.32,,2013-02-19 17:21:00,
2013-02-19 12:32:00,17.0,13.0,29.97,WNW,292,22.0,28.0,83,0.00,,,0.32,,2013-02-19 17:32:00,
2013-02-19 12:42:00,17.0,13.0,29.97,WNW,292,22.0,28.0,83,0.00,,,0.32,,2013-02-19 17:42:00,
2013-02-19 12:52:00,18.0,15.0,29.97,West,268,20.0,30.0,86,0.00,,,0.32,,2013-02-19 17:52:00,
2013-02-19 13:01:00,18.0,14.0,29.96,WNW,286,20.0,27.0,84,0.00,,,0.32,,2013-02-19 18:01:00,
2013-02-19 13:11:00,18.0,14.0,29.96,WNW,286,20.0,27.0,84,0.00,,,0.32,,2013-02-19 18:11:00,
2013-02-19 13:21:00,18.0,14.0,29.96,WNW,294,19.0,26.0,85,0.00,,,0.32,,2013-02-19 18:21:00,
2013-02-19 13:32:00,19.0,16.0,29.96,West,281,18.0,25.0,88,0.00,,,0.32,,2013-02-19 18:32:00,
2013-02-19 13:42:00,19.0,16.0,29.96,West,281,18.0,25.0,88,0.00,,,0.32,,2013-02-19 18:42:00,
2013-02-19 13:51:00,18.0,14.0,29.98,West,281,19.0,27.0,85,0.00,,,0.32,,2013-02-19 18:51:00,
2013-02-19 14:01:00,17.0,13.0,29.98,West,265,20.0,26.0,83,0.00,,,0.32,,2013-02-19 19:01:00,
2013-02-19 14:11:00,17.0,13.0,29.98,West,265,20.0,26.0,83,0.00,,,0.32,,2013-02-19 19:11:00,
2013-02-19 14:21:00,18.0,14.0,29.98,WNW,286,21.0,29.0,85,0.00,,,0.32,,2013-02-19 19:21:00,
2013-02-19 14:32:00,18.0,14.0,29.98,West,281,18.0,28.0,84,0.00,,,0.32,,2013-02-19 19:32:00,
2013-02-19 14:41:00,18.0,14.0,29.98,West,281,18.0,28.0,84,0.00,,,0.32,,2013-02-19 19:41:00,
2013-02-19 14:51:00,18.0,15.0,30.00,West,273,20.0,27.0,86,0.00,,,0.32,,2013-02-19 19:51:00,
2013-02-19 15:01:00,18.0,14.0,30.00,WNW,285,18.0,27.0,85,0.00,,,0.32,,2013-02-19 20:01:00,
2013-02-19 15:12:00,18.0,14.0,30.00,WNW,285,18.0,27.0,85,0.00,,,0.32,,2013-02-19 20:12:00,
2013-02-19 15:21:00,18.0,15.0,30.01,WNW,294,20.0,28.0,86,0.00,,,0.32,,2013-02-19 20:21:00,
2013-02-19 15:32:00,18.0,14.0,30.01,West,276,20.0,28.0,85,0.00,,,0.32,,2013-02-19 20:32:00,
2013-02-19 15:42:00,18.0,14.0,30.01,West,276,20.0,28.0,85,0.00,,,0.32,,2013-02-19 20:42:00,
2013-02-19 15:52:00,18.0,14.0,30.02,WNW,293,19.0,25.0,84,0.00,,,0.32,,2013-02-19 20:52:00,
2013-02-19 16:02:00,18.0,14.0,30.03,West,281,19.0,24.0,84,0.00,,,0.32,,2013-02-19 21:02:00,
2013-02-19 16:11:00,18.0,14.0,30.03,West,281,19.0,24.0,84,0.00,,,0.32,,2013-02-19 21:11:00,
2013-02-19 16:21:00,18.0,15.0,30.04,WNW,282,19.0,27.0,86,0.00,,,0.32,,2013-02-19 21:21:00,
2013-02-19 16:32:00,18.0,14.0,30.04,West,279,17.0,28.0,85,0.00,,,0.32,,2013-02-19 21:32:00,
2013-02-19 16:42:00,18.0,14.0,30.04,West,279,17.0,28.0,85,0.00,,,0.32,,2013-02-19 21:42:00,
2013-02-19 16:51:00,18.0,14.0,30.05,West,276,18.0,27.0,85,0.00,,,0.32,,2013-02-19 21:51:00,
2013-02-19 17:02:00,18.0,14.0,30.06,West,273,19.0,26.0,85,0.00,,,0.32,,2013-02-19 22:02:00,
2013-02-19 17:11:00,18.0,14.0,30.06,West,273,19.0,26.0,85,0.00,,,0.32,,2013-02-19 22:11:00,
2013-02-19 17:21:00,19.0,15.0,30.07,WNW,285,17.0,26.0,84,0.00,,,0.32,,2013-02-19 22:21:00,
2013-02-19 17:32:00,19.0,15.0,30.08,WNW,295,17.0,24.0,85,0.00,,,0.30,,2013-02-19 22:32:00,
2013-02-19 17:42:00,19.0,15.0,30.08,WNW,295,17.0,24.0,85,0.00,,,0.30,,2013-02-19 22:42:00,
2013-02-19 17:52:00,19.0,15.0,30.08,WNW,284,17.0,22.0,85,0.00,,,0.30,,2013-02-19 22:52:00,
2013-02-19 18:01:00,19.0,15.0,30.09,WSW,258,19.0,27.0,83,0.00,,,0.30,,2013-02-19 23:01:00,
2013-02-19 18:11:00,19.0,15.0,30.09,WSW,258,19.0,27.0,83,0.00,,,0.30,,2013-02-19 23:11:00,
2013-02-19 18:21:00,20.0,15.0,30.10,WNW,284,16.0,27.0,82,0.00,,,0.30,,2013-02-19 23:21:00,
2013-02-19 18:32:00,20.0,15.0,30.10,WNW,301,19.0,28.0,82,0.00,,,0.30,,2013-02-19 23:32:00,
2013-02-19 18:42:00,20.0,15.0,30.10,WNW,301,19.0,28.0,82,0.00,,,0.30,,2013-02-19 23:42:00,
2013-02-19 18:52:00,20.0,15.0,30.10,WNW,287,19.0,26.0,82,0.00,,,0.30,,2013-02-19 23:52:00,
2013-02-19 19:01:00,20.0,15.0,30.11,West,265,17.0,23.0,82,0.00,,,0.30,,2013-02-20 00:01:00,
2013-02-19 19:11:00,20.0,15.0,30.11,West,265,17.0,23.0,82,0.00,,,0.30,,2013-02-20 00:11:00,
2013-02-19 19:21:00,20.0,15.0,30.12,West,277,14.0,23.0,82,0.00,,,0.30,,2013-02-20 00:21:00,
2013-02-19 19:32:00,20.0,15.0,30.12,WNW,296,17.0,25.0,80,0.00,,,0.30,,2013-02-20 00:32:00,
2013-02-19 19:42:00,20.0,15.0,30.12,WNW,296,17.0,25.0,80,0.00,,,0.30,,2013-02-20 00:42:00,
2013-02-19 19:52:00,20.0,15.0,30.13,WNW,283,14.0,22.0,82,0.00,,,0.30,,2013-02-20 00:52:00,
2013-02-19 20:02:00,20.0,15.0,30.14,WNW,293,13.0,21.0,82,0.00,,,0.30,,2013-02-20 01:02:00,
2013-02-19 20:11:00,20.0,15.0,30.14,WNW,293,13.0,21.0,82,0.00,,,0.30,,2013-02-20 01:11:00,
2013-02-19 20:21:00,20.0,15.0,30.14,WNW,293,16.0,23.0,81,0.00,,,0.30,,2013-02-20 01:21:00,
2013-02-19 20:32:00,19.0,14.0,30.14,WNW,298,14.0,21.0,81,0.00,,,0.25,,2013-02-20 01:32:00,
2013-02-19 20:42:00,19.0,14.0,30.14,WNW,298,14.0,21.0,81,0.00,,,0.25,,2013-02-20 01:42:00,
2013-02-19 20:52:00,19.0,14.0,30.14,WNW,288,13.0,19.0,81,0.00,,,0.25,,2013-02-20 01:52:00,
2013-02-19 21:01:00,19.0,14.0,30.14,WNW,282,13.0,19.0,81,0.00,,,0.25,,2013-02-20 02:01:00,
2013-02-19 21:11:00,19.0,14.0,30.14,WNW,282,13.0,19.0,81,0.00,,,0.25,,2013-02-20 02:11:00,
2013-02-19 21:21:00,19.0,14.0,30.14,WNW,294,14.0,22.0,81,0.00,,,0.25,,2013-02-20 02:21:00,
2013-02-19 21:32:00,19.0,14.0,30.14,West,280,15.0,23.0,80,0.00,,,0.21,,2013-02-20 02:32:00,
2013-02-19 21:42:00,19.0,14.0,30.14,West,280,15.0,23.0,80,0.00,,,0.21,,2013-02-20 02:42:00,
2013-02-19 21:52:00,19.0,14.0,30.15,West,260,14.0,20.0,81,0.00,,,0.21,,2013-02-20 02:52:00,
2013-02-19 22:01:00,19.0,14.0,30.16,NW,309,13.0,22.0,81,0.00,,,0.21,,2013-02-20 03:01:00,
2013-02-19 22:12:00,19.0,14.0,30.16,NW,309,13.0,22.0,81,0.00,,,0.21,,2013-02-20 03:12:00,
2013-02-19 22:22:00,18.0,13.0,30.17,NW,308,13.0,18.0,81,0.00,,,0.21,,2013-02-20 03:22:00,
2013-02-19 22:32:00,18.0,13.0,30.17,WNW,292,14.0,20.0,80,0.00,,,0.18,,2013-02-20 03:32:00,
2013-02-19 22:42:00,18.0,13.0,30.17,WNW,292,14.0,20.0,80,0.00,,,0.18,,2013-02-20 03:42:00,
2013-02-19 22:51:00,18.0,13.0,30.18,NNW,329,11.0,20.0,81,0.00,,,0.18,,2013-02-20 03:51:00,
2013-02-19 23:01:00,18.0,13.0,30.18,WNW,292,17.0,22.0,81,0.00,,,0.18,,2013-02-20 04:01:00,
2013-02-19 23:11:00,18.0,13.0,30.18,WNW,292,17.0,22.0,81,0.00,,,0.18,,2013-02-20 04:11:00,
2013-02-19 23:21:00,18.0,13.0,30.19,NW,305,14.0,23.0,79,0.00,,,0.18,,2013-02-20 04:21:00,
2013-02-19 23:31:00,18.0,13.0,30.19,NW,305,14.0,23.0,79,0.00,,,0.18,,2013-02-20 04:31:00,
2013-02-19 23:42:00,18.0,13.0,30.19,NW,305,14.0,23.0,79,0.00,,,0.18,,2013-02-20 04:42:00,
2013-02-19 23:52:00,17.0,11.0,30.20,NW,312,17.0,24.0,78,0.00,,,0.10,,2013-02-20 04:52:00,